sensor_id;sensor_type;location;lat;lon;timestamp;temperature;humidity
2407;DHT22;37709;53.480;9.688;2024-01-30T00:01:22;5.00;99.90
2407;DHT22;37709;53.480;9.688;2024-01-30T00:03:49;4.80;99.90
2407;DHT22;37709;53.480;9.688;2024-01-30T00:06:19;4.80;99.90
2407;DHT22;37709;53.480;9.688;2024-01-30T00:08:49;4.90;99.90
2407;DHT22;37709;53.480;9.688;2024-01-30T00:11:17;4.80;99.90
2407;DHT22;37709;53.480;9.688;2024-01-30T00:13:44;4.70;99.90
2407;DHT22;37709;53.480;9.688;2024-01-30T00:16:22;4.70;99.90
2407;DHT22;37709;53.480;9.688;2024-01-30T00:18:54;4.60;99.90
2407;DHT22;37709;53.480;9.688;2024-01-30T00:21:22;4.50;99.90
2407;DHT22;37709;53.480;9.688;2024-01-30T00:23:50;4.50;99.90
2407;DHT22;37709;53.480;9.688;2024-01-30T00:26:17;4.40;99.90
2407;DHT22;37709;53.480;9.688;2024-01-30T00:28:45;4.40;99.90
2407;DHT22;37709;53.480;9.688;2024-01-30T00:31:12;4.40;99.90
2407;DHT22;37709;53.480;9.688;2024-01-30T00:33:40;4.40;99.90
2407;DHT22;37709;53.480;9.688;2024-01-30T00:36:09;4.40;99.90
2407;DHT22;37709;53.480;9.688;2024-01-30T00:38:37;4.40;99.90
2407;DHT22;37709;53.480;9.688;2024-01-30T00:41:04;4.50;99.90
2407;DHT22;37709;53.480;9.688;2024-01-30T00:43:32;4.50;99.90
2407;DHT22;37709;53.480;9.688;2024-01-30T00:45:59;4.40;99.90
2407;DHT22;37709;53.480;9.688;2024-01-30T00:48:27;4.30;99.90
2407;DHT22;37709;53.480;9.688;2024-01-30T00:50:55;4.30;99.90
2407;DHT22;37709;53.480;9.688;2024-01-30T00:53:22;4.30;99.90
2407;DHT22;37709;53.480;9.688;2024-01-30T00:55:49;4.30;99.90
2407;DHT22;37709;53.480;9.688;2024-01-30T00:58:16;4.30;99.90
2407;DHT22;37709;53.480;9.688;2024-01-30T01:00:46;4.30;99.90
2407;DHT22;37709;53.480;9.688;2024-01-30T01:03:13;4.20;99.90
2407;DHT22;37709;53.480;9.688;2024-01-30T01:05:41;4.20;99.90
2407;DHT22;37709;53.480;9.688;2024-01-30T01:08:08;4.10;99.90
2407;DHT22;37709;53.480;9.688;2024-01-30T01:10:36;4.10;99.90
2407;DHT22;37709;53.480;9.688;2024-01-30T01:13:03;4.10;99.90
2407;DHT22;37709;53.480;9.688;2024-01-30T01:15:31;4.20;99.90
2407;DHT22;37709;53.480;9.688;2024-01-30T01:17:58;4.10;99.90
2407;DHT22;37709;53.480;9.688;2024-01-30T01:20:26;4.10;99.90
2407;DHT22;37709;53.480;9.688;2024-01-30T01:22:53;4.10;99.90
2407;DHT22;37709;53.480;9.688;2024-01-30T01:25:21;4.10;99.90
2407;DHT22;37709;53.480;9.688;2024-01-30T01:27:49;4.20;99.90
2407;DHT22;37709;53.480;9.688;2024-01-30T01:30:19;4.10;99.90
2407;DHT22;37709;53.480;9.688;2024-01-30T01:32:49;4.00;99.90
2407;DHT22;37709;53.480;9.688;2024-01-30T01:35:24;4.00;99.90
2407;DHT22;37709;53.480;9.688;2024-01-30T01:37:53;4.00;99.90
2407;DHT22;37709;53.480;9.688;2024-01-30T01:40:24;4.00;99.90
2407;DHT22;37709;53.480;9.688;2024-01-30T01:42:54;4.10;99.90
2407;DHT22;37709;53.480;9.688;2024-01-30T01:45:22;4.00;99.90
2407;DHT22;37709;53.480;9.688;2024-01-30T01:47:52;4.00;99.90
2407;DHT22;37709;53.480;9.688;2024-01-30T01:50:21;3.90;99.90
2407;DHT22;37709;53.480;9.688;2024-01-30T01:52:50;4.00;99.90
2407;DHT22;37709;53.480;9.688;2024-01-30T01:55:20;4.00;99.90
2407;DHT22;37709;53.480;9.688;2024-01-30T01:57:53;4.00;99.90
2407;DHT22;37709;53.480;9.688;2024-01-30T02:00:22;4.00;99.90
2407;DHT22;37709;53.480;9.688;2024-01-30T02:02:50;4.00;99.90
2407;DHT22;37709;53.480;9.688;2024-01-30T02:05:18;3.90;99.90
2407;DHT22;37709;53.480;9.688;2024-01-30T02:07:46;3.90;99.90
2407;DHT22;37709;53.480;9.688;2024-01-30T02:10:14;3.90;99.90
2407;DHT22;37709;53.480;9.688;2024-01-30T02:12:42;3.90;99.90
2407;DHT22;37709;53.480;9.688;2024-01-30T02:15:13;3.90;99.90
2407;DHT22;37709;53.480;9.688;2024-01-30T02:17:41;3.90;99.90
2407;DHT22;37709;53.480;9.688;2024-01-30T02:20:34;3.90;99.90
2407;DHT22;37709;53.480;9.688;2024-01-30T02:23:02;3.80;99.90
2407;DHT22;37709;53.480;9.688;2024-01-30T02:25:35;3.80;99.90
2407;DHT22;37709;53.480;9.688;2024-01-30T02:28:03;3.70;99.90
2407;DHT22;37709;53.480;9.688;2024-01-30T02:30:30;3.70;99.90
2407;DHT22;37709;53.480;9.688;2024-01-30T02:32:57;3.70;99.90
2407;DHT22;37709;53.480;9.688;2024-01-30T02:35:25;3.70;99.90
2407;DHT22;37709;53.480;9.688;2024-01-30T02:37:53;3.70;99.90
2407;DHT22;37709;53.480;9.688;2024-01-30T02:40:20;3.70;99.90
2407;DHT22;37709;53.480;9.688;2024-01-30T02:42:48;3.70;99.90
2407;DHT22;37709;53.480;9.688;2024-01-30T02:45:15;3.60;99.90
2407;DHT22;37709;53.480;9.688;2024-01-30T02:47:43;3.60;99.90
2407;DHT22;37709;53.480;9.688;2024-01-30T02:50:10;3.40;99.90
2407;DHT22;37709;53.480;9.688;2024-01-30T02:52:38;3.40;99.90
2407;DHT22;37709;53.480;9.688;2024-01-30T02:55:06;3.40;99.90
2407;DHT22;37709;53.480;9.688;2024-01-30T02:57:34;3.40;99.90
2407;DHT22;37709;53.480;9.688;2024-01-30T03:00:02;3.30;99.90
2407;DHT22;37709;53.480;9.688;2024-01-30T03:02:31;3.30;99.90
2407;DHT22;37709;53.480;9.688;2024-01-30T03:04:59;3.30;99.90
2407;DHT22;37709;53.480;9.688;2024-01-30T03:07:27;3.40;99.90
2407;DHT22;37709;53.480;9.688;2024-01-30T03:09:54;3.30;99.90
2407;DHT22;37709;53.480;9.688;2024-01-30T03:12:22;3.10;99.90
2407;DHT22;37709;53.480;9.688;2024-01-30T03:14:51;3.10;99.90
2407;DHT22;37709;53.480;9.688;2024-01-30T03:17:18;3.10;99.90
2407;DHT22;37709;53.480;9.688;2024-01-30T03:19:51;3.00;99.90
2407;DHT22;37709;53.480;9.688;2024-01-30T03:22:18;3.10;99.90
2407;DHT22;37709;53.480;9.688;2024-01-30T03:24:46;3.10;99.90
2407;DHT22;37709;53.480;9.688;2024-01-30T03:27:13;3.10;99.90
2407;DHT22;37709;53.480;9.688;2024-01-30T03:29:41;3.00;99.90
2407;DHT22;37709;53.480;9.688;2024-01-30T03:32:10;2.90;99.90
2407;DHT22;37709;53.480;9.688;2024-01-30T03:34:38;2.90;99.90
2407;DHT22;37709;53.480;9.688;2024-01-30T03:37:05;2.80;99.90
2407;DHT22;37709;53.480;9.688;2024-01-30T03:39:33;2.80;99.90
2407;DHT22;37709;53.480;9.688;2024-01-30T03:42:00;2.60;99.90
2407;DHT22;37709;53.480;9.688;2024-01-30T03:44:28;2.70;99.90
2407;DHT22;37709;53.480;9.688;2024-01-30T03:46:56;2.70;99.90
2407;DHT22;37709;53.480;9.688;2024-01-30T03:49:24;2.60;99.90
2407;DHT22;37709;53.480;9.688;2024-01-30T03:51:52;2.70;99.90
2407;DHT22;37709;53.480;9.688;2024-01-30T03:54:20;2.60;99.90
2407;DHT22;37709;53.480;9.688;2024-01-30T03:56:47;2.50;99.90
2407;DHT22;37709;53.480;9.688;2024-01-30T03:59:14;2.50;99.90
2407;DHT22;37709;53.480;9.688;2024-01-30T04:01:42;2.60;99.90
2407;DHT22;37709;53.480;9.688;2024-01-30T04:04:09;2.60;99.90
2407;DHT22;37709;53.480;9.688;2024-01-30T04:06:37;2.70;99.90
2407;DHT22;37709;53.480;9.688;2024-01-30T04:09:04;2.70;99.90
2407;DHT22;37709;53.480;9.688;2024-01-30T04:11:32;2.80;99.90
2407;DHT22;37709;53.480;9.688;2024-01-30T04:14:00;2.80;99.90
2407;DHT22;37709;53.480;9.688;2024-01-30T04:16:27;2.80;99.90
2407;DHT22;37709;53.480;9.688;2024-01-30T04:18:56;2.80;99.90
2407;DHT22;37709;53.480;9.688;2024-01-30T04:21:24;2.90;99.90
2407;DHT22;37709;53.480;9.688;2024-01-30T04:23:51;2.80;99.90
2407;DHT22;37709;53.480;9.688;2024-01-30T04:26:19;2.80;99.90
2407;DHT22;37709;53.480;9.688;2024-01-30T04:28:47;2.80;99.90
2407;DHT22;37709;53.480;9.688;2024-01-30T04:31:14;2.70;99.90
2407;DHT22;37709;53.480;9.688;2024-01-30T04:33:41;2.70;99.90
2407;DHT22;37709;53.480;9.688;2024-01-30T04:36:09;2.80;99.90
2407;DHT22;37709;53.480;9.688;2024-01-30T04:38:39;2.90;99.90
2407;DHT22;37709;53.480;9.688;2024-01-30T04:41:07;2.80;99.90
2407;DHT22;37709;53.480;9.688;2024-01-30T04:43:35;2.80;99.90
2407;DHT22;37709;53.480;9.688;2024-01-30T04:46:04;2.80;99.90
2407;DHT22;37709;53.480;9.688;2024-01-30T04:48:31;2.70;99.90
2407;DHT22;37709;53.480;9.688;2024-01-30T04:50:59;2.70;99.90
2407;DHT22;37709;53.480;9.688;2024-01-30T04:53:30;2.90;99.90
2407;DHT22;37709;53.480;9.688;2024-01-30T04:55:58;2.80;99.90
2407;DHT22;37709;53.480;9.688;2024-01-30T04:58:25;2.80;99.90
2407;DHT22;37709;53.480;9.688;2024-01-30T05:00:53;2.90;99.90
2407;DHT22;37709;53.480;9.688;2024-01-30T05:03:21;2.80;99.90
2407;DHT22;37709;53.480;9.688;2024-01-30T05:05:51;2.70;99.90
2407;DHT22;37709;53.480;9.688;2024-01-30T05:08:18;2.80;99.90
2407;DHT22;37709;53.480;9.688;2024-01-30T05:10:45;2.90;99.90
2407;DHT22;37709;53.480;9.688;2024-01-30T05:13:13;2.90;99.90
2407;DHT22;37709;53.480;9.688;2024-01-30T05:15:41;2.90;99.90
2407;DHT22;37709;53.480;9.688;2024-01-30T05:18:09;2.90;99.90
2407;DHT22;37709;53.480;9.688;2024-01-30T05:20:37;2.80;99.90
2407;DHT22;37709;53.480;9.688;2024-01-30T05:23:04;2.80;99.90
2407;DHT22;37709;53.480;9.688;2024-01-30T05:25:31;2.80;99.90
2407;DHT22;37709;53.480;9.688;2024-01-30T05:27:59;2.90;99.90
2407;DHT22;37709;53.480;9.688;2024-01-30T05:30:27;2.80;99.90
2407;DHT22;37709;53.480;9.688;2024-01-30T05:32:56;2.80;99.90
2407;DHT22;37709;53.480;9.688;2024-01-30T05:35:23;2.90;99.90
2407;DHT22;37709;53.480;9.688;2024-01-30T05:37:51;2.90;99.90
2407;DHT22;37709;53.480;9.688;2024-01-30T05:40:18;2.80;99.90
2407;DHT22;37709;53.480;9.688;2024-01-30T05:42:48;3.00;99.90
2407;DHT22;37709;53.480;9.688;2024-01-30T05:45:15;3.10;99.90
2407;DHT22;37709;53.480;9.688;2024-01-30T05:47:42;3.10;99.90
2407;DHT22;37709;53.480;9.688;2024-01-30T05:50:10;3.20;99.90
2407;DHT22;37709;53.480;9.688;2024-01-30T05:52:38;3.20;99.90
2407;DHT22;37709;53.480;9.688;2024-01-30T05:55:05;3.20;99.90
2407;DHT22;37709;53.480;9.688;2024-01-30T05:57:33;3.40;99.90
2407;DHT22;37709;53.480;9.688;2024-01-30T06:00:01;3.50;99.90
2407;DHT22;37709;53.480;9.688;2024-01-30T06:02:31;3.50;99.90
2407;DHT22;37709;53.480;9.688;2024-01-30T06:04:58;3.70;99.90
2407;DHT22;37709;53.480;9.688;2024-01-30T06:07:26;3.70;99.90
2407;DHT22;37709;53.480;9.688;2024-01-30T06:09:57;3.80;99.90
2407;DHT22;37709;53.480;9.688;2024-01-30T06:12:24;3.80;99.90
2407;DHT22;37709;53.480;9.688;2024-01-30T06:14:55;3.90;99.90
2407;DHT22;37709;53.480;9.688;2024-01-30T06:17:24;3.90;99.90
2407;DHT22;37709;53.480;9.688;2024-01-30T06:19:51;3.90;99.90
2407;DHT22;37709;53.480;9.688;2024-01-30T06:22:19;4.00;99.90
2407;DHT22;37709;53.480;9.688;2024-01-30T06:24:47;4.00;99.90
2407;DHT22;37709;53.480;9.688;2024-01-30T06:27:17;4.00;99.90
2407;DHT22;37709;53.480;9.688;2024-01-30T06:29:45;4.00;99.90
2407;DHT22;37709;53.480;9.688;2024-01-30T06:32:13;4.10;99.90
2407;DHT22;37709;53.480;9.688;2024-01-30T06:34:41;4.10;99.90
2407;DHT22;37709;53.480;9.688;2024-01-30T06:37:08;4.10;99.90
2407;DHT22;37709;53.480;9.688;2024-01-30T06:39:36;4.00;99.90
2407;DHT22;37709;53.480;9.688;2024-01-30T06:42:03;4.00;99.90
2407;DHT22;37709;53.480;9.688;2024-01-30T06:44:31;4.00;99.90
2407;DHT22;37709;53.480;9.688;2024-01-30T06:46:59;4.00;99.90
2407;DHT22;37709;53.480;9.688;2024-01-30T06:49:28;3.90;99.90
2407;DHT22;37709;53.480;9.688;2024-01-30T06:51:56;3.80;99.90
2407;DHT22;37709;53.480;9.688;2024-01-30T06:54:23;3.80;99.90
2407;DHT22;37709;53.480;9.688;2024-01-30T06:56:51;3.90;99.90
2407;DHT22;37709;53.480;9.688;2024-01-30T06:59:18;3.90;99.90
2407;DHT22;37709;53.480;9.688;2024-01-30T07:01:46;3.80;99.90
2407;DHT22;37709;53.480;9.688;2024-01-30T07:04:14;3.80;99.90
2407;DHT22;37709;53.480;9.688;2024-01-30T07:06:41;3.80;99.90
2407;DHT22;37709;53.480;9.688;2024-01-30T07:09:10;3.90;99.90
2407;DHT22;37709;53.480;9.688;2024-01-30T07:11:38;3.80;99.90
2407;DHT22;37709;53.480;9.688;2024-01-30T07:14:05;3.90;99.90
2407;DHT22;37709;53.480;9.688;2024-01-30T07:16:33;3.90;99.90
2407;DHT22;37709;53.480;9.688;2024-01-30T07:19:00;4.00;99.90
2407;DHT22;37709;53.480;9.688;2024-01-30T07:21:29;4.10;99.90
2407;DHT22;37709;53.480;9.688;2024-01-30T07:23:57;4.30;99.90
2407;DHT22;37709;53.480;9.688;2024-01-30T07:26:24;4.30;99.90
2407;DHT22;37709;53.480;9.688;2024-01-30T07:28:51;4.40;99.90
2407;DHT22;37709;53.480;9.688;2024-01-30T07:31:19;4.40;99.90
2407;DHT22;37709;53.480;9.688;2024-01-30T07:33:48;4.50;99.90
2407;DHT22;37709;53.480;9.688;2024-01-30T07:36:15;4.50;99.90
2407;DHT22;37709;53.480;9.688;2024-01-30T07:38:43;4.50;99.90
2407;DHT22;37709;53.480;9.688;2024-01-30T07:41:10;4.60;99.90
2407;DHT22;37709;53.480;9.688;2024-01-30T07:43:38;4.60;99.90
2407;DHT22;37709;53.480;9.688;2024-01-30T07:46:06;4.70;99.90
2407;DHT22;37709;53.480;9.688;2024-01-30T07:48:33;4.80;99.90
2407;DHT22;37709;53.480;9.688;2024-01-30T07:51:01;4.80;99.90
2407;DHT22;37709;53.480;9.688;2024-01-30T07:53:30;4.80;99.90
2407;DHT22;37709;53.480;9.688;2024-01-30T07:55:57;4.80;99.90
2407;DHT22;37709;53.480;9.688;2024-01-30T07:58:24;4.80;99.90
2407;DHT22;37709;53.480;9.688;2024-01-30T08:00:54;4.90;99.90
2407;DHT22;37709;53.480;9.688;2024-01-30T08:03:24;5.00;99.90
2407;DHT22;37709;53.480;9.688;2024-01-30T08:05:51;5.10;99.90
2407;DHT22;37709;53.480;9.688;2024-01-30T08:08:18;5.20;99.90
2407;DHT22;37709;53.480;9.688;2024-01-30T08:10:46;5.30;99.90
2407;DHT22;37709;53.480;9.688;2024-01-30T08:13:15;5.50;99.90
2407;DHT22;37709;53.480;9.688;2024-01-30T08:15:43;5.50;99.90
2407;DHT22;37709;53.480;9.688;2024-01-30T08:18:10;5.60;99.90
2407;DHT22;37709;53.480;9.688;2024-01-30T08:20:54;5.60;99.90
2407;DHT22;37709;53.480;9.688;2024-01-30T08:23:21;5.60;99.90
2407;DHT22;37709;53.480;9.688;2024-01-30T08:25:49;5.70;99.90
2407;DHT22;37709;53.480;9.688;2024-01-30T08:28:16;5.80;99.90
2407;DHT22;37709;53.480;9.688;2024-01-30T08:30:47;5.80;99.90
2407;DHT22;37709;53.480;9.688;2024-01-30T08:33:15;5.90;99.90
2407;DHT22;37709;53.480;9.688;2024-01-30T08:35:42;6.00;99.90
2407;DHT22;37709;53.480;9.688;2024-01-30T08:38:10;6.10;99.90
2407;DHT22;37709;53.480;9.688;2024-01-30T08:40:39;6.30;99.90
2407;DHT22;37709;53.480;9.688;2024-01-30T08:43:07;6.60;99.90
2407;DHT22;37709;53.480;9.688;2024-01-30T08:45:36;6.70;99.90
2407;DHT22;37709;53.480;9.688;2024-01-30T08:48:04;6.90;99.90
2407;DHT22;37709;53.480;9.688;2024-01-30T08:50:32;6.90;99.90
2407;DHT22;37709;53.480;9.688;2024-01-30T08:53:00;7.00;99.90
2407;DHT22;37709;53.480;9.688;2024-01-30T08:55:27;7.10;99.90
2407;DHT22;37709;53.480;9.688;2024-01-30T08:57:55;7.20;99.90
2407;DHT22;37709;53.480;9.688;2024-01-30T09:00:24;7.40;99.90
2407;DHT22;37709;53.480;9.688;2024-01-30T09:02:51;7.70;99.90
2407;DHT22;37709;53.480;9.688;2024-01-30T09:05:18;7.80;99.90
2407;DHT22;37709;53.480;9.688;2024-01-30T09:07:46;8.00;99.90
2407;DHT22;37709;53.480;9.688;2024-01-30T09:10:13;8.00;99.90
2407;DHT22;37709;53.480;9.688;2024-01-30T09:12:43;8.10;99.90
2407;DHT22;37709;53.480;9.688;2024-01-30T09:15:11;8.30;99.90
2407;DHT22;37709;53.480;9.688;2024-01-30T09:17:38;8.30;99.90
2407;DHT22;37709;53.480;9.688;2024-01-30T09:20:06;8.40;99.90
2407;DHT22;37709;53.480;9.688;2024-01-30T09:22:34;8.50;99.90
2407;DHT22;37709;53.480;9.688;2024-01-30T09:25:02;8.70;99.90
2407;DHT22;37709;53.480;9.688;2024-01-30T09:27:30;8.80;99.90
2407;DHT22;37709;53.480;9.688;2024-01-30T09:29:59;8.80;99.90
2407;DHT22;37709;53.480;9.688;2024-01-30T09:32:26;9.00;99.90
2407;DHT22;37709;53.480;9.688;2024-01-30T09:34:53;9.10;99.90
2407;DHT22;37709;53.480;9.688;2024-01-30T09:37:21;9.30;99.90
2407;DHT22;37709;53.480;9.688;2024-01-30T09:39:51;9.60;99.90
2407;DHT22;37709;53.480;9.688;2024-01-30T09:44:58;9.70;99.90
2407;DHT22;37709;53.480;9.688;2024-01-30T09:47:26;9.90;99.90
2407;DHT22;37709;53.480;9.688;2024-01-30T09:49:55;10.20;99.90
2407;DHT22;37709;53.480;9.688;2024-01-30T09:52:23;10.60;99.90
2407;DHT22;37709;53.480;9.688;2024-01-30T09:54:51;11.00;99.90
2407;DHT22;37709;53.480;9.688;2024-01-30T09:57:19;11.10;99.90
2407;DHT22;37709;53.480;9.688;2024-01-30T09:59:48;11.10;99.90
2407;DHT22;37709;53.480;9.688;2024-01-30T10:02:16;11.20;99.90
2407;DHT22;37709;53.480;9.688;2024-01-30T10:04:44;11.10;99.90
2407;DHT22;37709;53.480;9.688;2024-01-30T10:07:11;11.00;99.90
2407;DHT22;37709;53.480;9.688;2024-01-30T10:09:40;11.00;99.90
2407;DHT22;37709;53.480;9.688;2024-01-30T10:12:09;10.90;99.90
2407;DHT22;37709;53.480;9.688;2024-01-30T10:14:40;11.10;99.90
2407;DHT22;37709;53.480;9.688;2024-01-30T10:17:08;11.10;99.90
2407;DHT22;37709;53.480;9.688;2024-01-30T10:19:47;11.10;99.90
2407;DHT22;37709;53.480;9.688;2024-01-30T10:22:16;11.00;99.90
2407;DHT22;37709;53.480;9.688;2024-01-30T10:24:44;11.00;99.90
2407;DHT22;37709;53.480;9.688;2024-01-30T10:27:14;11.10;99.90
2407;DHT22;37709;53.480;9.688;2024-01-30T10:29:42;11.00;99.90
2407;DHT22;37709;53.480;9.688;2024-01-30T10:32:10;11.00;99.90
2407;DHT22;37709;53.480;9.688;2024-01-30T10:34:37;10.90;99.90
2407;DHT22;37709;53.480;9.688;2024-01-30T10:37:09;10.90;99.90
2407;DHT22;37709;53.480;9.688;2024-01-30T10:39:44;10.80;99.90
2407;DHT22;37709;53.480;9.688;2024-01-30T10:42:14;10.80;99.90
2407;DHT22;37709;53.480;9.688;2024-01-30T10:47:26;10.90;99.90
2407;DHT22;37709;53.480;9.688;2024-01-30T10:49:55;10.80;99.90
2407;DHT22;37709;53.480;9.688;2024-01-30T10:52:24;10.90;99.90
2407;DHT22;37709;53.480;9.688;2024-01-30T10:54:54;10.70;99.90
2407;DHT22;37709;53.480;9.688;2024-01-30T10:57:34;10.80;99.90
2407;DHT22;37709;53.480;9.688;2024-01-30T11:00:08;10.70;99.90
2407;DHT22;37709;53.480;9.688;2024-01-30T11:02:40;10.70;99.90
2407;DHT22;37709;53.480;9.688;2024-01-30T11:05:08;10.70;99.90
2407;DHT22;37709;53.480;9.688;2024-01-30T11:07:36;10.40;99.90
2407;DHT22;37709;53.480;9.688;2024-01-30T11:10:06;10.60;99.90
2407;DHT22;37709;53.480;9.688;2024-01-30T11:12:40;10.60;99.90
2407;DHT22;37709;53.480;9.688;2024-01-30T11:15:16;10.30;99.90
2407;DHT22;37709;53.480;9.688;2024-01-30T11:17:49;10.20;99.90
2407;DHT22;37709;53.480;9.688;2024-01-30T11:22:51;10.40;99.90
2407;DHT22;37709;53.480;9.688;2024-01-30T11:25:23;10.30;99.90
2407;DHT22;37709;53.480;9.688;2024-01-30T11:27:55;10.30;99.90
2407;DHT22;37709;53.480;9.688;2024-01-30T11:30:29;10.20;99.90
2407;DHT22;37709;53.480;9.688;2024-01-30T11:33:09;10.30;99.90
2407;DHT22;37709;53.480;9.688;2024-01-30T11:35:43;10.40;99.90
2407;DHT22;37709;53.480;9.688;2024-01-30T11:38:14;10.50;99.90
2407;DHT22;37709;53.480;9.688;2024-01-30T11:40:44;10.70;99.90
2407;DHT22;37709;53.480;9.688;2024-01-30T11:43:12;10.70;99.90
2407;DHT22;37709;53.480;9.688;2024-01-30T11:45:40;10.60;99.90
2407;DHT22;37709;53.480;9.688;2024-01-30T11:48:14;10.60;99.90
2407;DHT22;37709;53.480;9.688;2024-01-30T11:50:42;10.70;99.90
2407;DHT22;37709;53.480;9.688;2024-01-30T11:53:11;10.70;99.90
2407;DHT22;37709;53.480;9.688;2024-01-30T11:55:38;10.70;99.90
2407;DHT22;37709;53.480;9.688;2024-01-30T11:58:06;10.70;99.90
2407;DHT22;37709;53.480;9.688;2024-01-30T12:00:34;10.60;99.90
2407;DHT22;37709;53.480;9.688;2024-01-30T12:03:03;10.50;99.90
2407;DHT22;37709;53.480;9.688;2024-01-30T12:05:31;10.50;99.90
2407;DHT22;37709;53.480;9.688;2024-01-30T12:07:59;10.50;99.90
2407;DHT22;37709;53.480;9.688;2024-01-30T12:10:29;10.50;99.90
2407;DHT22;37709;53.480;9.688;2024-01-30T12:12:58;10.40;99.90
2407;DHT22;37709;53.480;9.688;2024-01-30T12:15:26;10.40;99.90
2407;DHT22;37709;53.480;9.688;2024-01-30T12:18:06;10.50;99.90
2407;DHT22;37709;53.480;9.688;2024-01-30T12:20:35;10.60;99.90
2407;DHT22;37709;53.480;9.688;2024-01-30T12:23:03;10.70;99.90
2407;DHT22;37709;53.480;9.688;2024-01-30T12:25:30;10.70;99.90
2407;DHT22;37709;53.480;9.688;2024-01-30T12:27:58;10.70;99.90
2407;DHT22;37709;53.480;9.688;2024-01-30T12:30:26;10.80;99.90
2407;DHT22;37709;53.480;9.688;2024-01-30T12:32:55;10.70;99.90
2407;DHT22;37709;53.480;9.688;2024-01-30T12:35:23;10.70;99.90
2407;DHT22;37709;53.480;9.688;2024-01-30T12:37:50;10.70;99.90
2407;DHT22;37709;53.480;9.688;2024-01-30T12:40:18;10.70;99.90
2407;DHT22;37709;53.480;9.688;2024-01-30T12:42:47;10.60;99.90
2407;DHT22;37709;53.480;9.688;2024-01-30T12:45:17;10.70;99.90
2407;DHT22;37709;53.480;9.688;2024-01-30T12:47:50;10.70;99.90
2407;DHT22;37709;53.480;9.688;2024-01-30T12:50:21;10.70;99.90
2407;DHT22;37709;53.480;9.688;2024-01-30T12:52:49;10.60;99.90
2407;DHT22;37709;53.480;9.688;2024-01-30T12:55:17;10.50;99.90
2407;DHT22;37709;53.480;9.688;2024-01-30T12:57:45;10.50;99.90
2407;DHT22;37709;53.480;9.688;2024-01-30T13:00:13;10.40;99.90
2407;DHT22;37709;53.480;9.688;2024-01-30T13:02:40;10.40;99.90
2407;DHT22;37709;53.480;9.688;2024-01-30T13:05:10;10.30;99.90
2407;DHT22;37709;53.480;9.688;2024-01-30T13:07:38;10.30;99.90
2407;DHT22;37709;53.480;9.688;2024-01-30T13:10:06;10.30;99.90
2407;DHT22;37709;53.480;9.688;2024-01-30T13:12:33;10.30;99.90
2407;DHT22;37709;53.480;9.688;2024-01-30T13:15:01;10.30;99.90
2407;DHT22;37709;53.480;9.688;2024-01-30T13:17:32;10.20;99.90
2407;DHT22;37709;53.480;9.688;2024-01-30T13:20:00;10.20;99.90
2407;DHT22;37709;53.480;9.688;2024-01-30T13:22:37;10.20;99.90
2407;DHT22;37709;53.480;9.688;2024-01-30T13:25:06;10.20;99.90
2407;DHT22;37709;53.480;9.688;2024-01-30T13:27:34;10.20;99.90
2407;DHT22;37709;53.480;9.688;2024-01-30T13:30:03;10.20;99.90
2407;DHT22;37709;53.480;9.688;2024-01-30T13:32:31;10.20;99.90
2407;DHT22;37709;53.480;9.688;2024-01-30T13:34:59;10.20;99.90
2407;DHT22;37709;53.480;9.688;2024-01-30T13:37:26;10.20;99.90
2407;DHT22;37709;53.480;9.688;2024-01-30T13:39:54;10.20;99.90
2407;DHT22;37709;53.480;9.688;2024-01-30T13:42:21;10.20;99.90
2407;DHT22;37709;53.480;9.688;2024-01-30T13:44:49;10.20;99.90
2407;DHT22;37709;53.480;9.688;2024-01-30T13:47:16;10.20;99.90
2407;DHT22;37709;53.480;9.688;2024-01-30T13:49:46;10.20;99.90
2407;DHT22;37709;53.480;9.688;2024-01-30T13:52:13;10.20;99.90
2407;DHT22;37709;53.480;9.688;2024-01-30T13:54:41;10.20;99.90
2407;DHT22;37709;53.480;9.688;2024-01-30T13:57:10;10.10;99.90
2407;DHT22;37709;53.480;9.688;2024-01-30T13:59:38;10.10;99.90
2407;DHT22;37709;53.480;9.688;2024-01-30T14:02:06;10.20;99.90
2407;DHT22;37709;53.480;9.688;2024-01-30T14:04:36;10.20;99.90
2407;DHT22;37709;53.480;9.688;2024-01-30T14:07:05;10.20;99.90
2407;DHT22;37709;53.480;9.688;2024-01-30T14:09:34;10.20;99.90
2407;DHT22;37709;53.480;9.688;2024-01-30T14:12:02;10.30;99.90
2407;DHT22;37709;53.480;9.688;2024-01-30T14:14:29;10.40;99.90
2407;DHT22;37709;53.480;9.688;2024-01-30T14:16:56;10.40;99.90
2407;DHT22;37709;53.480;9.688;2024-01-30T14:19:23;10.40;99.90
2407;DHT22;37709;53.480;9.688;2024-01-30T14:21:51;10.40;99.90
2407;DHT22;37709;53.480;9.688;2024-01-30T14:24:18;10.40;99.90
2407;DHT22;37709;53.480;9.688;2024-01-30T14:26:45;10.30;99.90
2407;DHT22;37709;53.480;9.688;2024-01-30T14:29:13;10.30;99.90
2407;DHT22;37709;53.480;9.688;2024-01-30T14:31:41;10.30;99.90
2407;DHT22;37709;53.480;9.688;2024-01-30T14:34:09;10.30;99.90
2407;DHT22;37709;53.480;9.688;2024-01-30T14:36:38;10.40;99.90
2407;DHT22;37709;53.480;9.688;2024-01-30T14:39:05;10.40;99.90
2407;DHT22;37709;53.480;9.688;2024-01-30T14:41:34;10.40;99.90
2407;DHT22;37709;53.480;9.688;2024-01-30T14:44:01;10.40;99.90
2407;DHT22;37709;53.480;9.688;2024-01-30T14:46:31;10.40;99.90
2407;DHT22;37709;53.480;9.688;2024-01-30T14:48:59;10.40;99.90
2407;DHT22;37709;53.480;9.688;2024-01-30T14:51:26;10.40;99.90
2407;DHT22;37709;53.480;9.688;2024-01-30T14:53:53;10.40;99.90
2407;DHT22;37709;53.480;9.688;2024-01-30T14:56:21;10.40;99.90
2407;DHT22;37709;53.480;9.688;2024-01-30T14:58:48;10.40;99.90
2407;DHT22;37709;53.480;9.688;2024-01-30T15:01:16;10.40;99.90
2407;DHT22;37709;53.480;9.688;2024-01-30T15:03:43;10.30;99.90
2407;DHT22;37709;53.480;9.688;2024-01-30T15:06:12;10.20;99.90
2407;DHT22;37709;53.480;9.688;2024-01-30T15:08:40;10.20;99.90
2407;DHT22;37709;53.480;9.688;2024-01-30T15:11:08;10.10;99.90
2407;DHT22;37709;53.480;9.688;2024-01-30T15:13:35;10.10;99.90
2407;DHT22;37709;53.480;9.688;2024-01-30T15:16:02;10.20;99.90
2407;DHT22;37709;53.480;9.688;2024-01-30T15:18:33;10.20;99.90
2407;DHT22;37709;53.480;9.688;2024-01-30T15:21:01;10.20;99.90
2407;DHT22;37709;53.480;9.688;2024-01-30T15:23:28;10.10;99.90
2407;DHT22;37709;53.480;9.688;2024-01-30T15:25:55;10.20;99.90
2407;DHT22;37709;53.480;9.688;2024-01-30T15:28:34;10.20;99.90
2407;DHT22;37709;53.480;9.688;2024-01-30T15:31:04;10.10;99.90
2407;DHT22;37709;53.480;9.688;2024-01-30T15:33:32;10.20;99.90
2407;DHT22;37709;53.480;9.688;2024-01-30T15:36:00;10.20;99.90
2407;DHT22;37709;53.480;9.688;2024-01-30T15:38:28;10.20;99.90
2407;DHT22;37709;53.480;9.688;2024-01-30T15:40:57;10.20;99.90
2407;DHT22;37709;53.480;9.688;2024-01-30T15:43:25;10.20;99.90
2407;DHT22;37709;53.480;9.688;2024-01-30T15:45:53;10.10;99.90
2407;DHT22;37709;53.480;9.688;2024-01-30T15:48:20;9.80;99.90
2407;DHT22;37709;53.480;9.688;2024-01-30T15:50:48;9.70;99.90
2407;DHT22;37709;53.480;9.688;2024-01-30T15:53:15;9.40;99.90
2407;DHT22;37709;53.480;9.688;2024-01-30T15:55:43;9.30;99.90
2407;DHT22;37709;53.480;9.688;2024-01-30T15:58:10;9.20;99.90
2407;DHT22;37709;53.480;9.688;2024-01-30T16:00:38;9.20;99.90
2407;DHT22;37709;53.480;9.688;2024-01-30T16:03:06;9.20;99.90
2407;DHT22;37709;53.480;9.688;2024-01-30T16:05:33;9.20;99.90
2407;DHT22;37709;53.480;9.688;2024-01-30T16:08:01;9.30;99.90
2407;DHT22;37709;53.480;9.688;2024-01-30T16:10:28;9.40;99.90